createdAt,value
2023-04-01T00:01:52.480Z,98068.91
2023-04-01T00:06:55.141Z,98074.06
2023-04-01T00:11:57.755Z,98073.22
2023-04-01T00:17:00.431Z,98068.13
2023-04-01T00:22:03.217Z,98040.06
2023-04-01T00:27:06.218Z,98059.59
2023-04-01T00:32:09.080Z,98037.50
2023-04-01T00:37:12.475Z,98045.13
2023-04-01T00:42:15.289Z,98044.31
2023-04-01T00:47:18.565Z,98046.88
2023-04-01T00:52:26.512Z,98043.47
2023-04-01T00:57:37.727Z,98044.31
2023-04-01T01:02:44.151Z,98049.44
2023-04-01T01:08:13.598Z,98051.16
2023-04-01T01:13:27.671Z,98048.53
2023-04-01T01:18:53.225Z,98048.53
2023-04-01T01:24:23.610Z,98046.81
2023-04-01T01:30:05.008Z,98052.75
2023-04-01T01:35:32.324Z,98058.72
2023-04-01T01:40:39.066Z,98059.59
2023-04-01T01:45:49.308Z,98058.72
2023-04-01T01:50:53.014Z,98037.50
2023-04-01T01:55:56.385Z,98051.03
2023-04-01T02:01:05.968Z,98040.81
2023-04-01T02:06:17.062Z,98048.50
2023-04-01T02:11:27.558Z,98051.84
2023-04-01T02:16:36.480Z,98044.25
2023-04-01T02:21:41.661Z,98061.28
2023-04-01T02:26:46.810Z,98070.66
2023-04-01T02:31:51.723Z,98061.28
2023-04-01T02:36:56.520Z,98071.50
2023-04-01T02:41:59.297Z,98076.63
2023-04-01T02:47:02.089Z,98084.25
2023-04-01T02:52:04.990Z,98075.78
2023-04-01T02:57:07.892Z,98071.53
2023-04-01T03:02:10.797Z,98086.00
2023-04-01T03:07:14.222Z,98091.16
2023-04-01T03:12:16.976Z,98093.69
2023-04-01T03:17:26.129Z,98082.59
2023-04-01T03:22:29.350Z,98088.59
2023-04-01T03:27:31.981Z,98092.00
2023-04-01T03:32:34.750Z,98102.25
2023-04-01T03:37:37.970Z,98097.97
2023-04-01T03:42:40.834Z,98107.38
2023-04-01T03:47:43.838Z,98115.81
2023-04-01T03:52:46.692Z,98120.91
2023-04-01T03:57:49.451Z,98128.56
2023-04-01T04:02:56.097Z,98131.06
2023-04-01T04:08:04.792Z,98142.13
2023-04-01T04:13:08.422Z,98147.25
2023-04-01T04:18:15.744Z,98151.47
2023-04-01T04:23:19.383Z,98154.03
2023-04-01T04:28:22.155Z,98136.97
2023-04-01T04:33:26.645Z,98152.16
2023-04-01T04:38:30.174Z,98151.25
2023-04-01T04:43:32.967Z,98155.38
2023-04-01T04:48:36.638Z,98152.66
2023-04-01T04:53:39.233Z,98165.28
2023-04-01T04:58:41.871Z,98150.09
2023-04-01T05:03:50.930Z,98155.84
2023-04-01T05:08:53.629Z,98169.41
2023-04-01T05:13:56.563Z,98177.78
2023-04-01T05:18:59.334Z,98192.16
2023-04-01T05:24:02.152Z,98181.91
2023-04-01T05:29:07.605Z,98196.53
2023-04-01T05:34:10.324Z,98198.94
2023-04-01T05:39:12.930Z,98201.63
2023-04-01T05:44:16.387Z,98195.50
2023-04-01T05:49:18.988Z,98189.19
2023-04-01T05:54:22.012Z,98174.94
2023-04-01T05:59:24.767Z,98197.22
2023-04-01T06:04:33.963Z,98198.63
2023-04-01T06:09:37.043Z,98207.50
2023-04-01T06:15:04.963Z,98217.31
2023-04-01T06:20:17.527Z,98225.56
2023-04-01T06:25:39.061Z,98229.78
2023-04-01T06:30:44.973Z,98217.63
2023-04-01T06:36:13.278Z,98192.47
2023-04-01T06:41:46.269Z,98220.50
2023-04-01T06:47:24.037Z,98230.09
2023-04-01T06:53:24.937Z,98245.81
2023-04-01T06:58:57.500Z,98227.66
2023-04-01T07:04:06.426Z,98177.53
2023-04-01T07:09:17.475Z,98233.00
2023-04-01T07:14:48.956Z,98213.25
2023-04-01T07:20:03.109Z,98235.28
2023-04-01T07:25:14.802Z,98243.22
2023-04-01T07:30:23.151Z,98249.06
2023-04-01T07:36:03.058Z,98245.56
2023-04-01T07:41:31.700Z,98252.00
2023-04-01T07:46:59.123Z,98248.81
2023-04-01T07:52:10.380Z,98256.66
2023-04-01T07:57:56.597Z,98261.94
2023-04-01T08:03:18.465Z,98265.31
2023-04-01T08:08:47.557Z,98260.88
2023-04-01T08:14:14.216Z,98266.88
2023-04-01T08:19:58.019Z,98276.16
2023-04-01T08:25:08.900Z,98267.38
2023-04-01T08:30:26.023Z,98274.03
2023-04-01T08:35:39.991Z,98277.03
2023-04-01T08:41:02.156Z,98267.47
2023-04-01T08:46:51.748Z,98265.81
2023-04-01T08:51:54.361Z,98273.19
2023-04-01T08:57:18.835Z,98275.69
2023-04-01T09:02:47.510Z,98286.63
2023-04-01T09:08:26.892Z,98282.78
2023-04-01T09:14:02.804Z,98291.97
2023-04-01T09:19:44.453Z,98295.19
2023-04-01T09:25:08.327Z,98302.97
2023-04-01T09:30:34.122Z,98301.69
2023-04-01T09:35:43.982Z,98288.03
2023-04-01T09:41:03.080Z,98308.91
2023-04-01T09:46:27.868Z,98319.44
2023-04-01T09:51:43.189Z,98320.41
2023-04-01T09:56:59.238Z,98321.75
2023-04-01T10:02:20.590Z,98323.56
2023-04-01T10:08:02.242Z,98327.59
2023-04-01T10:13:17.152Z,98332.78
2023-04-01T10:19:04.946Z,98333.16
2023-04-01T10:24:40.387Z,98326.00
2023-04-01T10:30:30.632Z,98330.84
2023-04-01T10:35:37.108Z,98337.44
2023-04-01T10:41:07.935Z,98334.19
2023-04-01T10:46:56.662Z,98337.63
2023-04-01T10:52:17.736Z,98343.88
2023-04-01T10:57:57.032Z,98347.72
2023-04-01T11:04:00.265Z,98347.41
2023-04-01T11:09:26.749Z,98355.63
2023-04-01T11:14:58.173Z,98324.28
2023-04-01T11:20:38.750Z,98342.59
2023-04-01T11:25:44.553Z,98348.56
2023-04-01T11:31:36.372Z,98348.28
2023-04-01T11:37:10.661Z,98356.66
2023-04-01T11:42:45.043Z,98355.75
2023-04-01T11:48:27.204Z,98359.25
2023-04-01T11:53:54.204Z,98364.00
2023-04-01T11:59:24.661Z,98358.59
2023-04-01T12:04:59.192Z,98355.91
2023-04-01T12:10:26.539Z,98371.06
2023-04-01T12:15:49.737Z,98362.97
2023-04-01T12:21:01.787Z,98369.94
2023-04-01T12:26:25.222Z,98379.31
2023-04-01T12:32:05.665Z,98370.16
2023-04-01T12:37:17.626Z,98379.19
2023-04-01T12:42:20.132Z,98379.63
2023-04-01T12:47:25.859Z,98387.06
2023-04-01T12:52:50.602Z,98381.66
2023-04-01T12:57:59.000Z,98383.34
2023-04-01T13:03:20.994Z,98386.56
2023-04-01T13:08:23.508Z,98407.22
2023-04-01T13:13:35.772Z,98407.06
2023-04-01T13:19:04.921Z,98421.56
2023-04-01T13:24:25.689Z,98376.53
2023-04-01T13:29:44.530Z,98406.63
2023-04-01T13:35:21.359Z,98430.19
2023-04-01T13:41:02.223Z,98437.47
2023-04-01T13:46:32.540Z,98442.63
2023-04-01T13:51:53.406Z,98454.94
2023-04-01T13:57:22.114Z,98435.38
2023-04-01T14:02:44.494Z,98463.63
2023-04-01T14:07:47.486Z,98463.63
2023-04-01T14:13:09.023Z,98429.94
2023-04-01T14:18:38.933Z,98466.19
2023-04-01T14:24:15.017Z,98475.63
2023-04-01T14:29:43.894Z,98491.28
2023-04-01T14:35:24.241Z,98484.06
2023-04-01T14:40:58.838Z,98497.19
2023-04-01T14:46:36.000Z,98501.72
2023-04-01T14:51:40.651Z,98506.19
2023-04-01T14:57:13.526Z,98484.16
2023-04-01T15:02:34.366Z,98514.22
2023-04-01T15:07:56.015Z,98534.78
2023-04-01T15:13:31.303Z,98519.69
2023-04-01T15:18:40.508Z,98530.09
2023-04-01T15:23:51.723Z,98539.72
2023-04-01T15:29:31.769Z,98549.09
2023-04-01T15:35:12.177Z,98540.69
2023-04-01T15:40:20.774Z,98552.81
2023-04-01T15:45:43.180Z,98559.63
2023-04-01T15:50:57.065Z,98570.22
2023-04-01T15:56:42.258Z,98563.38
2023-04-01T16:02:12.263Z,98591.69
2023-04-01T16:07:31.074Z,98594.47
2023-04-01T16:12:36.902Z,98609.22
2023-04-01T16:18:23.303Z,98609.34
2023-04-01T16:23:44.886Z,98614.41
2023-04-01T16:29:28.980Z,98618.75
2023-04-01T16:34:42.627Z,98623.97
2023-04-01T16:40:12.987Z,98626.59
2023-04-01T16:45:45.396Z,98621.38
2023-04-01T16:51:00.560Z,98624.91
2023-04-01T16:56:03.702Z,98636.03
2023-04-01T17:01:17.468Z,98635.06
2023-04-01T17:06:49.448Z,98633.56
2023-04-01T17:11:58.226Z,98631.06
2023-04-01T17:17:16.103Z,98644.19
2023-04-01T17:22:45.616Z,98616.84
2023-04-01T17:27:54.135Z,98643.25
2023-04-01T17:33:24.723Z,98652.72
2023-04-01T17:39:01.597Z,98656.09
2023-04-01T17:44:16.629Z,98660.44
2023-04-01T17:49:49.402Z,98653.63
2023-04-01T17:55:19.033Z,98662.28
2023-04-01T18:00:38.374Z,98665.75
2023-04-01T18:06:04.031Z,98675.22
2023-04-01T18:11:43.676Z,98674.44
2023-04-01T18:17:27.807Z,98682.97
2023-04-01T18:22:39.914Z,98689.97
2023-04-01T18:28:01.066Z,98687.38
2023-04-01T18:33:03.424Z,98699.44
2023-04-01T18:38:11.654Z,98708.00
2023-04-01T18:43:20.401Z,98710.50
2023-04-01T18:48:40.135Z,98717.44
2023-04-01T18:53:49.354Z,98720.75
2023-04-01T18:58:51.699Z,98731.09
2023-04-01T19:04:10.025Z,98726.72
2023-04-01T19:09:31.041Z,98735.53
2023-04-01T19:14:36.499Z,98728.53
2023-04-01T19:19:53.659Z,98731.19
2023-04-01T19:24:59.088Z,98738.00
2023-04-01T19:30:04.528Z,98733.66
2023-04-01T19:35:19.524Z,98737.06
2023-04-01T19:40:24.769Z,98746.59
2023-04-01T19:45:33.419Z,98749.94
2023-04-01T19:50:41.360Z,98759.47
2023-04-01T19:55:49.417Z,98754.19
2023-04-01T20:00:58.396Z,98755.03
2023-04-01T20:06:31.202Z,98749.84
2023-04-01T20:11:51.849Z,98754.09
2023-04-01T20:17:02.424Z,98754.06
2023-04-01T20:22:11.261Z,98758.38
2023-04-01T20:27:13.602Z,98762.66
2023-04-01T20:32:45.219Z,98753.16
2023-04-01T20:37:55.744Z,98755.00
2023-04-01T20:43:01.224Z,98754.91
2023-04-01T20:48:22.211Z,98748.06
2023-04-01T20:53:33.317Z,98760.09
2023-04-01T20:58:38.708Z,98767.00
2023-04-01T21:03:55.060Z,98780.72
2023-04-01T21:09:16.421Z,98772.94
2023-04-01T21:14:37.797Z,98773.00
2023-04-01T21:19:43.196Z,98775.63
2023-04-01T21:24:45.696Z,98781.56
2023-04-01T21:29:54.011Z,98775.50
2023-04-01T21:34:59.518Z,98779.69
2023-04-01T21:40:20.372Z,98783.13
2023-04-01T21:45:22.802Z,98789.16
2023-04-01T21:50:25.486Z,98788.28
2023-04-01T21:55:34.140Z,98786.56
2023-04-01T22:00:43.987Z,98790.13
2023-04-01T22:06:04.494Z,98789.16
2023-04-01T22:11:10.026Z,98795.06
2023-04-01T22:16:30.833Z,98800.13
2023-04-01T22:21:39.363Z,98807.09
2023-04-01T22:26:47.609Z,98801.94
2023-04-01T22:32:09.488Z,98800.16
2023-04-01T22:37:11.829Z,98799.31
2023-04-01T22:42:33.244Z,98794.09
2023-04-01T22:47:40.346Z,98801.00
2023-04-01T22:52:48.121Z,98802.06
2023-04-01T22:57:53.484Z,98800.28
2023-04-01T23:03:14.345Z,98808.16
2023-04-01T23:08:22.691Z,98807.28
2023-04-01T23:13:42.781Z,98805.50
2023-04-01T23:18:51.141Z,98806.34
2023-04-01T23:23:53.503Z,98802.13
2023-04-01T23:28:56.896Z,98808.13
2023-04-01T23:34:14.529Z,98811.56
2023-04-01T23:39:20.058Z,98814.94
2023-04-01T23:44:22.711Z,98809.84
2023-04-01T23:49:29.810Z,98809.00
2023-04-01T23:54:39.889Z,98811.53
2023-04-01T23:59:42.582Z,98804.69
